Time;durP1;ratioP1;P1;durP2;ratioP2;P2;SDS_P1;SDS_P2;PMS_P1;PMS_P2;Temp;Humidity;BMP_temperature;BMP_pressure;BME280_temperature;BME280_humidity;BME280_pressure;Samples;Min_cycle;Max_cycle;Signal;HPM_P1;HPM_P2
2024/03/12 00:00:32;;;;;;;6.43;5.43;;;7.70;99.90;;;;;;5050911;28;20029;-53
2024/03/12 00:02:57;;;;;;;7.40;5.43;;;7.60;99.90;;;;;;5050956;28;20150;-53
2024/03/12 00:05:24;;;;;;;6.78;5.57;;;7.60;99.90;;;;;;5050739;28;20033;-54
2024/03/12 00:07:50;;;;;;;9.98;6.18;;;7.60;99.90;;;;;;5050720;28;20512;-50
2024/03/12 00:10:19;;;;;;;7.13;5.00;;;7.50;99.90;;;;;;5051767;23;20049;-49
2024/03/12 00:12:49;;;;;;;7.40;5.82;;;7.50;99.90;;;;;;5029544;28;20096;-49
2024/03/12 00:15:17;;;;;;;6.03;5.05;;;7.40;99.90;;;;;;5030820;28;20028;-48
2024/03/12 00:17:43;;;;;;;6.65;5.65;;;7.30;99.90;;;;;;5033686;28;20025;-53
2024/03/12 00:20:18;;;;;;;9.32;5.63;;;7.30;99.90;;;;;;5034355;28;20032;-52
2024/03/12 00:22:47;;;;;;;6.28;5.10;;;7.30;99.90;;;;;;5034525;28;20027;-52
2024/03/12 00:25:20;;;;;;;7.05;4.82;;;7.30;99.90;;;;;;5034556;28;20029;-54
2024/03/12 00:27:46;;;;;;;7.82;5.00;;;7.30;99.90;;;;;;5034270;28;20456;-54
2024/03/12 00:30:13;;;;;;;9.63;4.85;;;7.30;99.90;;;;;;5034367;28;20025;-50
2024/03/12 00:32:43;;;;;;;5.28;4.60;;;7.30;99.90;;;;;;5034351;28;20028;-49
2024/03/12 00:35:12;;;;;;;4.38;3.90;;;7.30;99.90;;;;;;5034509;28;20049;-56
2024/03/12 00:37:47;;;;;;;6.30;4.38;;;7.40;99.90;;;;;;5034535;28;20021;-53
2024/03/12 00:40:13;;;;;;;4.63;3.80;;;7.40;99.90;;;;;;5032939;28;20037;-57
2024/03/12 00:42:43;;;;;;;6.70;4.07;;;7.40;99.90;;;;;;5034387;28;20521;-51
2024/03/12 00:45:12;;;;;;;4.32;3.90;;;7.40;99.90;;;;;;5034053;28;20026;-54
2024/03/12 00:47:41;;;;;;;6.07;4.43;;;7.40;99.90;;;;;;5033706;28;20104;-51
2024/03/12 00:50:11;;;;;;;4.85;3.80;;;7.40;99.90;;;;;;5033260;28;20026;-54
2024/03/12 00:52:46;;;;;;;10.88;5.28;;;7.50;99.90;;;;;;5049117;28;20044;-49
2024/03/12 00:55:16;;;;;;;4.28;3.88;;;7.50;99.90;;;;;;5033831;28;20029;-49
2024/03/12 00:57:42;;;;;;;6.53;4.25;;;7.50;99.90;;;;;;5033946;28;20021;-55
2024/03/12 01:00:33;;;;;;;4.15;3.75;;;7.50;99.90;;;;;;5033560;28;20366;-49
2024/03/12 01:02:59;;;;;;;8.25;4.07;;;7.40;99.90;;;;;;5031965;28;20108;-51
2024/03/12 01:05:26;;;;;;;6.75;3.90;;;7.30;99.90;;;;;;5033946;28;20025;-54
2024/03/12 01:07:58;;;;;;;5.03;4.15;;;7.30;99.90;;;;;;5033516;28;20029;-55
2024/03/12 01:10:26;;;;;;;10.57;4.07;;;7.30;99.90;;;;;;5033325;28;20033;-52
2024/03/12 01:12:53;;;;;;;7.30;4.32;;;7.20;99.90;;;;;;5033938;28;20496;-58
2024/03/12 01:15:19;;;;;;;5.95;3.80;;;7.20;99.90;;;;;;5033642;28;20443;-54
2024/03/12 01:17:46;;;;;;;5.60;3.92;;;7.20;99.90;;;;;;5032112;28;20037;-53
2024/03/12 01:20:12;;;;;;;6.50;3.78;;;7.20;99.90;;;;;;5033077;28;20499;-52
2024/03/12 01:22:38;;;;;;;6.90;4.13;;;7.20;99.90;;;;;;5031862;28;20044;-55
2024/03/12 01:25:06;;;;;;;8.40;3.95;;;7.20;99.90;;;;;;5033312;28;20032;-50
2024/03/12 01:27:33;;;;;;;6.55;4.20;;;7.20;99.90;;;;;;5032164;28;20404;-52
2024/03/12 01:30:00;;;;;;;5.57;3.83;;;7.20;99.90;;;;;;5047662;28;20025;-57
2024/03/12 01:32:26;;;;;;;7.95;4.53;;;7.20;99.90;;;;;;5033003;28;20393;-51
2024/03/12 01:34:51;;;;;;;4.38;3.88;;;7.20;99.90;;;;;;5032825;28;20021;-53
2024/03/12 01:37:24;;;;;;;7.88;4.65;;;7.30;99.90;;;;;;5031078;28;20031;-53
2024/03/12 01:39:52;;;;;;;6.70;4.45;;;7.30;99.90;;;;;;5032676;28;20032;-49
2024/03/12 01:42:23;;;;;;;4.38;3.97;;;7.30;99.90;;;;;;5032990;28;20091;-51
2024/03/12 01:44:52;;;;;;;7.85;4.25;;;7.30;99.90;;;;;;5032685;28;20029;-56
2024/03/12 01:47:18;;;;;;;5.97;4.00;;;7.30;99.90;;;;;;5031371;28;20500;-47
2024/03/12 01:49:48;;;;;;;6.00;3.90;;;7.40;99.90;;;;;;5032066;28;20087;-54
2024/03/12 01:52:17;;;;;;;5.88;3.88;;;7.40;99.90;;;;;;5032795;28;20030;-53
2024/03/12 01:54:44;;;;;;;4.78;3.95;;;7.40;99.90;;;;;;5048365;28;20022;-51
2024/03/12 01:57:10;;;;;;;8.02;4.32;;;7.50;99.90;;;;;;5032841;28;20092;-53
2024/03/12 01:59:36;;;;;;;5.30;4.80;;;7.50;99.90;;;;;;5032209;28;20076;-50
2024/03/12 02:02:02;;;;;;;7.88;4.97;;;7.50;99.90;;;;;;5032327;28;20528;-52
2024/03/12 02:04:28;;;;;;;6.35;4.90;;;7.50;99.90;;;;;;5031066;28;20125;-56
2024/03/12 02:06:54;;;;;;;5.22;4.30;;;7.50;99.90;;;;;;5032240;28;20021;-54
2024/03/12 02:09:21;;;;;;;5.57;4.32;;;7.50;99.90;;;;;;5032021;28;20052;-51
2024/03/12 02:11:47;;;;;;;5.82;4.40;;;7.50;99.90;;;;;;5031038;28;20032;-51
2024/03/12 02:14:14;;;;;;;10.60;4.78;;;7.50;99.90;;;;;;5032159;28;20018;-51
2024/03/12 02:16:39;;;;;;;9.05;4.70;;;7.50;99.90;;;;;;5032370;28;20021;-49
2024/03/12 02:19:05;;;;;;;6.65;4.50;;;7.50;99.90;;;;;;5032023;28;20566;-48
2024/03/12 02:21:31;;;;;;;6.13;3.80;;;7.50;99.90;;;;;;5031029;28;20029;-55
2024/03/12 02:23:57;;;;;;;7.45;4.45;;;7.50;99.90;;;;;;5032072;28;20026;-53
2024/03/12 02:26:24;;;;;;;10.88;5.40;;;7.50;99.90;;;;;;5031817;28;20083;-47
2024/03/12 02:28:50;;;;;;;6.53;4.75;;;7.60;99.90;;;;;;5031739;28;20018;-51
2024/03/12 02:31:15;;;;;;;5.57;4.65;;;7.50;99.90;;;;;;5030668;28;20159;-48
2024/03/12 02:33:41;;;;;;;6.75;4.97;;;7.50;99.90;;;;;;5031810;28;20029;-53
2024/03/12 02:36:07;;;;;;;7.28;4.88;;;7.50;99.90;;;;;;5031893;28;20033;-50
2024/03/12 02:38:38;;;;;;;5.25;4.43;;;7.50;99.90;;;;;;5031783;28;20030;-56
2024/03/12 02:41:10;;;;;;;5.97;4.53;;;7.40;99.90;;;;;;5031500;28;20021;-53
2024/03/12 02:43:36;;;;;;;10.07;5.00;;;7.40;99.90;;;;;;5031550;28;20026;-53
2024/03/12 02:46:02;;;;;;;8.70;5.57;;;7.30;99.90;;;;;;5031292;28;20071;-51
2024/03/12 02:48:29;;;;;;;8.88;5.63;;;7.30;99.90;;;;;;5031168;28;20033;-54
2024/03/12 02:50:55;;;;;;;7.85;4.90;;;7.30;99.90;;;;;;5031550;28;20017;-51
2024/03/12 02:53:20;;;;;;;7.45;5.70;;;7.30;99.90;;;;;;5031474;28;20433;-51
2024/03/12 02:55:46;;;;;;;7.00;5.20;;;7.30;99.90;;;;;;5031279;28;20231;-54
2024/03/12 02:58:12;;;;;;;10.30;5.40;;;7.30;99.90;;;;;;5031490;28;20030;-56
2024/03/12 03:00:37;;;;;;;6.05;4.75;;;7.30;99.90;;;;;;5031308;28;20477;-51
2024/03/12 03:03:03;;;;;;;8.05;5.45;;;7.40;99.90;;;;;;5030005;28;20156;-50
2024/03/12 03:05:29;;;;;;;9.25;6.07;;;7.40;99.90;;;;;;5031368;28;20404;-47
2024/03/12 03:07:54;;;;;;;8.05;5.72;;;7.50;99.90;;;;;;5030139;28;20029;-53
2024/03/12 03:10:20;;;;;;;14.45;5.90;;;7.50;99.90;;;;;;5031133;28;20119;-55
2024/03/12 03:12:46;;;;;;;7.55;6.20;;;7.50;99.90;;;;;;5031444;28;20062;-55
2024/03/12 03:15:12;;;;;;;8.95;5.75;;;7.50;99.90;;;;;;5031783;28;20104;-48
2024/03/12 03:17:39;;;;;;;12.13;6.43;;;7.50;99.90;;;;;;5031469;28;20031;-51
2024/03/12 03:20:06;;;;;;;8.25;6.38;;;7.50;99.90;;;;;;5030880;28;20068;-53
2024/03/12 03:22:32;;;;;;;8.75;5.75;;;7.50;99.90;;;;;;5031357;28;20021;-53
2024/03/12 03:24:57;;;;;;;8.20;5.25;;;7.60;99.90;;;;;;5031602;28;20022;-48
2024/03/12 03:27:23;;;;;;;6.85;5.68;;;7.60;99.90;;;;;;5031253;28;20116;-54
2024/03/12 03:29:48;;;;;;;6.93;5.80;;;7.60;99.90;;;;;;5031146;28;20424;-51
2024/03/12 03:32:14;;;;;;;8.30;6.15;;;7.60;99.90;;;;;;5031302;28;20052;-49
2024/03/12 03:34:42;;;;;;;7.40;5.70;;;7.70;99.90;;;;;;5031214;28;20350;-48
2024/03/12 03:37:08;;;;;;;8.85;5.75;;;7.70;99.90;;;;;;5031006;28;20030;-52
2024/03/12 03:39:35;;;;;;;9.05;6.53;;;7.70;99.90;;;;;;5030940;28;20025;-56
2024/03/12 03:42:02;;;;;;;8.13;5.72;;;7.70;99.90;;;;;;5031251;28;20090;-49
2024/03/12 03:44:28;;;;;;;7.50;6.00;;;7.70;99.90;;;;;;5031036;28;20025;-54
2024/03/12 03:46:53;;;;;;;8.13;5.55;;;7.60;99.90;;;;;;5031098;28;20537;-54
2024/03/12 03:49:19;;;;;;;8.52;6.35;;;7.70;99.90;;;;;;5030879;28;20101;-52
2024/03/12 03:51:47;;;;;;;7.15;6.28;;;7.70;99.90;;;;;;5033093;28;20018;-47
2024/03/12 03:54:12;;;;;;;7.28;5.57;;;7.70;99.90;;;;;;5033835;28;20044;-49
2024/03/12 03:56:38;;;;;;;9.48;6.07;;;7.70;99.90;;;;;;5035745;28;20480;-52
2024/03/12 03:59:05;;;;;;;8.80;5.88;;;7.60;99.90;;;;;;5035397;28;20029;-49
2024/03/12 04:01:30;;;;;;;13.10;6.63;;;7.60;99.90;;;;;;5034822;28;20562;-48
2024/03/12 04:03:56;;;;;;;7.65;6.45;;;7.50;99.90;;;;;;5034554;28;20064;-51
2024/03/12 04:06:23;;;;;;;9.17;6.30;;;7.50;99.90;;;;;;5034524;28;20104;-51
2024/03/12 04:08:50;;;;;;;8.23;6.55;;;7.50;99.90;;;;;;5034683;28;20040;-52
2024/03/12 04:11:22;;;;;;;7.18;6.38;;;7.50;99.90;;;;;;5034622;28;20492;-51
2024/03/12 04:13:48;;;;;;;9.75;6.35;;;7.40;99.90;;;;;;5034410;28;20503;-49
2024/03/12 04:16:14;;;;;;;9.73;6.28;;;7.50;99.90;;;;;;5034471;28;20384;-52
2024/03/12 04:18:43;;;;;;;9.15;6.63;;;7.50;99.90;;;;;;5034290;28;20039;-49
2024/03/12 04:21:12;;;;;;;8.93;6.40;;;7.50;99.90;;;;;;5049939;28;20029;-54
2024/03/12 04:23:38;;;;;;;9.23;6.93;;;7.40;99.90;;;;;;5034080;28;20072;-49
2024/03/12 04:26:04;;;;;;;9.95;6.80;;;7.50;99.90;;;;;;5034108;28;20029;-50
2024/03/12 04:28:30;;;;;;;8.82;6.50;;;7.50;99.90;;;;;;5033961;28;20029;-51
2024/03/12 04:30:56;;;;;;;7.45;6.07;;;7.40;99.90;;;;;;5033795;28;20124;-54
2024/03/12 04:33:21;;;;;;;8.80;6.75;;;7.30;99.90;;;;;;5034035;28;20018;-53
2024/03/12 04:35:47;;;;;;;7.82;6.13;;;7.30;99.90;;;;;;5034022;28;20029;-57
2024/03/12 04:38:14;;;;;;;8.88;6.57;;;7.20;99.90;;;;;;5034028;28;20170;-54
2024/03/12 04:40:40;;;;;;;9.18;6.00;;;7.10;99.90;;;;;;5032309;28;20064;-54
2024/03/12 04:43:05;;;;;;;8.48;6.07;;;7.10;99.90;;;;;;5034068;28;20552;-53
2024/03/12 04:45:31;;;;;;;8.95;5.90;;;7.00;99.90;;;;;;5032494;28;20155;-50
2024/03/12 04:47:57;;;;;;;12.77;7.80;;;7.00;99.90;;;;;;5033894;28;20108;-54
2024/03/12 04:50:22;;;;;;;9.82;6.32;;;6.90;99.90;;;;;;5033315;28;20111;-53
2024/03/12 04:52:52;;;;;;;9.10;6.47;;;7.00;99.90;;;;;;5033810;28;20047;-53
2024/03/12 04:55:17;;;;;;;10.18;6.55;;;7.00;99.90;;;;;;5033658;28;20021;-51
2024/03/12 04:57:43;;;;;;;9.20;6.97;;;6.90;99.90;;;;;;5033634;28;20477;-55
2024/03/12 05:00:18;;;;;;;8.32;6.68;;;6.90;99.90;;;;;;5033444;28;20477;-52
2024/03/12 05:02:47;;;;;;;8.23;6.30;;;7.00;99.90;;;;;;5048743;28;20022;-53
2024/03/12 05:05:13;;;;;;;11.60;6.80;;;7.00;99.90;;;;;;5033242;28;20033;-51
2024/03/12 05:07:39;;;;;;;11.10;6.90;;;7.00;99.90;;;;;;5033631;28;20467;-50
2024/03/12 05:10:06;;;;;;;15.07;6.95;;;7.00;99.90;;;;;;5033128;28;20030;-50
2024/03/12 05:12:31;;;;;;;9.80;6.38;;;7.00;99.90;;;;;;5033403;28;20013;-49
2024/03/12 05:14:57;;;;;;;7.13;6.13;;;7.00;99.90;;;;;;5033507;28;20021;-55
2024/03/12 05:17:22;;;;;;;10.02;6.68;;;6.90;99.90;;;;;;5033202;28;20045;-51
2024/03/12 05:19:48;;;;;;;9.77;6.57;;;7.00;99.90;;;;;;5033119;28;20033;-53
2024/03/12 05:22:14;;;;;;;6.60;5.68;;;7.00;99.90;;;;;;5033371;28;20048;-49
2024/03/12 05:24:40;;;;;;;8.05;6.65;;;7.00;99.90;;;;;;5033138;28;20036;-51
2024/03/12 05:27:06;;;;;;;7.32;5.80;;;7.00;99.90;;;;;;5033157;28;20025;-52
2024/03/12 05:29:42;;;;;;;8.15;6.47;;;6.90;99.90;;;;;;5032944;28;20025;-50
2024/03/12 05:32:17;;;;;;;7.50;6.28;;;6.90;99.90;;;;;;5032020;28;20117;-56
2024/03/12 05:34:47;;;;;;;5.80;4.85;;;6.90;99.90;;;;;;5033557;28;20026;-52
2024/03/12 05:38:01;;;;;;;6.82;5.80;;;6.90;99.90;;;;;;5033982;28;20124;-51
2024/03/12 05:40:16;;;;;;;9.32;6.47;;;6.80;99.90;;;;;;5029387;28;20096;-53
2024/03/12 05:48:12;;;;;;;8.80;5.45;;;6.90;99.90;;;;;;5032698;28;20036;-53
2024/03/12 05:50:41;;;;;;;9.32;5.60;;;6.80;99.90;;;;;;5032355;28;20029;-55
2024/03/12 05:53:08;;;;;;;7.30;5.82;;;6.80;99.90;;;;;;5033022;28;20037;-52
2024/03/12 05:55:34;;;;;;;7.63;5.55;;;6.80;99.90;;;;;;5032695;28;20021;-50
2024/03/12 05:58:00;;;;;;;8.70;5.35;;;6.80;99.90;;;;;;5032624;28;20026;-49
2024/03/12 06:00:25;;;;;;;6.47;5.78;;;6.80;99.90;;;;;;5031405;28;20033;-48
2024/03/12 06:02:51;;;;;;;8.00;6.07;;;6.90;99.90;;;;;;5032484;28;20036;-51
2024/03/12 06:05:17;;;;;;;6.88;6.03;;;6.90;99.90;;;;;;5032653;28;20026;-52
2024/03/12 06:07:48;;;;;;;12.43;5.88;;;6.90;99.90;;;;;;5031198;28;20552;-52
2024/03/12 06:10:14;;;;;;;8.80;6.10;;;7.00;99.90;;;;;;5038792;23;20046;-47
2024/03/12 06:12:40;;;;;;;10.02;6.10;;;7.00;99.90;;;;;;5012386;28;20033;-48
2024/03/12 06:15:06;;;;;;;11.05;5.88;;;7.00;99.90;;;;;;4994028;28;20049;-43
2024/03/12 06:17:32;;;;;;;8.65;6.82;;;7.10;99.90;;;;;;5012466;28;20075;-43
2024/03/12 06:19:58;;;;;;;10.88;6.80;;;7.10;99.90;;;;;;4996492;28;20029;-44
2024/03/12 06:22:24;;;;;;;8.27;6.07;;;7.10;99.90;;;;;;4992601;28;20026;-42
2024/03/12 06:24:49;;;;;;;10.85;7.03;;;7.10;99.90;;;;;;4992616;28;20038;-46
2024/03/12 06:27:16;;;;;;;9.98;6.47;;;7.20;99.90;;;;;;4992621;28;20449;-48
2024/03/12 06:29:41;;;;;;;10.25;6.78;;;7.20;99.90;;;;;;4992351;28;20502;-47
2024/03/12 06:32:07;;;;;;;8.27;6.82;;;7.30;99.90;;;;;;4992556;28;20038;-44
2024/03/12 06:34:33;;;;;;;11.73;7.43;;;7.20;99.90;;;;;;4992795;28;20041;-44
2024/03/12 06:36:58;;;;;;;9.02;6.93;;;7.30;99.90;;;;;;5007563;28;20030;-44
2024/03/12 06:39:31;;;;;;;11.25;7.75;;;7.40;99.90;;;;;;4992191;28;20106;-45
2024/03/12 06:42:01;;;;;;;9.18;7.50;;;7.50;99.90;;;;;;4992379;28;20030;-43
2024/03/12 06:44:27;;;;;;;11.30;7.45;;;7.50;99.90;;;;;;4992163;28;20033;-43
2024/03/12 06:46:54;;;;;;;9.77;6.78;;;7.50;99.90;;;;;;4991925;28;20026;-47
2024/03/12 06:49:20;;;;;;;9.98;7.15;;;7.60;99.90;;;;;;4991853;28;20390;-47
2024/03/12 06:51:48;;;;;;;12.52;7.72;;;7.60;99.90;;;;;;4991582;28;20073;-44
2024/03/12 06:54:14;;;;;;;9.43;7.03;;;7.60;99.90;;;;;;4992098;28;20057;-42
2024/03/12 06:56:43;;;;;;;13.07;7.45;;;7.70;99.90;;;;;;4992104;28;20314;-47
2024/03/12 06:59:15;;;;;;;10.00;6.65;;;7.60;99.90;;;;;;4991980;28;20072;-48
2024/03/12 07:01:41;;;;;;;10.20;6.60;;;7.70;99.90;;;;;;4992104;28;20025;-50
2024/03/12 07:04:10;;;;;;;10.40;7.03;;;7.80;99.90;;;;;;4992647;28;20037;-44
2024/03/12 07:06:37;;;;;;;8.88;7.70;;;7.90;99.90;;;;;;4992005;28;20029;-48
2024/03/12 07:09:09;;;;;;;12.77;7.32;;;7.90;99.90;;;;;;4991856;28;20026;-42
2024/03/12 07:11:39;;;;;;;9.95;6.78;;;8.00;99.90;;;;;;4992035;28;20038;-44
2024/03/12 07:14:12;;;;;;;9.00;7.00;;;8.10;99.90;;;;;;4991938;28;20105;-43
2024/03/12 07:16:41;;;;;;;11.38;7.60;;;8.10;99.90;;;;;;4991954;28;20097;-47
2024/03/12 07:19:07;;;;;;;12.02;7.20;;;8.10;99.90;;;;;;5006848;28;20291;-50
2024/03/12 07:21:34;;;;;;;10.93;6.10;;;8.10;99.90;;;;;;4991968;28;20022;-44
2024/03/12 07:24:00;;;;;;;8.35;6.43;;;8.10;99.90;;;;;;4991835;28;20045;-45
2024/03/12 07:26:26;;;;;;;8.98;6.85;;;8.10;99.90;;;;;;4994683;28;20041;-46
2024/03/12 07:28:52;;;;;;;12.25;7.90;;;8.20;99.90;;;;;;4995718;28;20537;-43
2024/03/12 07:31:17;;;;;;;13.38;7.35;;;8.20;99.90;;;;;;5010932;28;20030;-46
2024/03/12 07:33:43;;;;;;;10.95;7.07;;;8.20;99.90;;;;;;4995920;28;20398;-46
2024/03/12 07:36:10;;;;;;;10.52;6.53;;;8.20;99.90;;;;;;4995994;28;20026;-47
2024/03/12 07:38:38;;;;;;;9.20;7.10;;;8.10;99.90;;;;;;4995818;28;20028;-43
2024/03/12 07:41:08;;;;;;;10.15;7.32;;;8.20;99.90;;;;;;4995792;28;20026;-43
2024/03/12 07:43:35;;;;;;;8.90;7.40;;;8.20;99.90;;;;;;4995666;28;20034;-47
2024/03/12 07:46:02;;;;;;;10.98;7.63;;;8.20;99.90;;;;;;4995777;28;20377;-42
2024/03/12 07:48:28;;;;;;;10.05;8.27;;;8.30;99.90;;;;;;4995534;28;20145;-43
2024/03/12 07:50:55;;;;;;;10.30;7.53;;;8.30;99.90;;;;;;4995632;28;20526;-40
2024/03/12 07:53:22;;;;;;;9.77;7.18;;;8.40;99.90;;;;;;4995439;28;20018;-45
2024/03/12 07:55:53;;;;;;;10.30;7.53;;;8.40;99.90;;;;;;4995451;28;20041;-43
2024/03/12 07:58:19;;;;;;;10.55;7.05;;;8.40;99.90;;;;;;4996051;28;20029;-42
2024/03/12 08:00:45;;;;;;;9.35;6.63;;;8.50;99.90;;;;;;4995655;28;20019;-46
2024/03/12 08:03:13;;;;;;;14.13;7.55;;;8.50;99.90;;;;;;4995967;28;20057;-43
2024/03/12 08:05:42;;;;;;;10.48;7.72;;;8.50;99.90;;;;;;4995485;28;20397;-45
2024/03/12 08:08:07;;;;;;;12.02;7.70;;;8.50;99.90;;;;;;4995343;28;20026;-45
2024/03/12 08:10:33;;;;;;;9.02;7.03;;;8.60;99.90;;;;;;5010324;28;20160;-45
2024/03/12 08:13:00;;;;;;;10.70;7.07;;;8.60;99.90;;;;;;4995435;28;20101;-44
2024/03/12 08:15:27;;;;;;;10.30;7.03;;;8.60;99.90;;;;;;4995307;28;20026;-47
2024/03/12 08:17:54;;;;;;;10.68;7.90;;;8.60;99.90;;;;;;4995058;28;20508;-43
2024/03/12 08:20:22;;;;;;;13.43;7.00;;;8.70;99.90;;;;;;4994795;28;20029;-45
2024/03/12 08:22:47;;;;;;;8.88;7.30;;;8.80;99.90;;;;;;4994873;28;20475;-44
2024/03/12 08:25:13;;;;;;;17.98;8.52;;;8.80;99.90;;;;;;5010112;28;20038;-44
2024/03/12 08:27:40;;;;;;;11.73;8.10;;;8.80;99.90;;;;;;4994874;28;20080;-43
2024/03/12 08:30:09;;;;;;;8.30;7.43;;;8.90;99.90;;;;;;4994612;28;20398;-45
2024/03/12 08:32:36;;;;;;;12.63;8.70;;;9.00;99.90;;;;;;4994728;28;20018;-43
2024/03/12 08:35:02;;;;;;;9.50;7.45;;;9.00;99.90;;;;;;4996003;28;20077;-46
2024/03/12 08:37:28;;;;;;;9.85;7.30;;;9.00;99.90;;;;;;5015804;28;20034;-50
2024/03/12 08:39:54;;;;;;;9.40;7.22;;;9.00;99.90;;;;;;5013974;28;20650;-47
2024/03/12 08:42:20;;;;;;;9.40;7.57;;;9.00;99.90;;;;;;5014170;28;20040;-46
2024/03/12 08:44:46;;;;;;;13.55;7.28;;;9.00;99.90;;;;;;5014126;28;20026;-46
2024/03/12 08:47:12;;;;;;;9.90;8.13;;;9.00;99.90;;;;;;5013784;28;20032;-46
2024/03/12 08:49:38;;;;;;;11.48;8.73;;;9.10;99.90;;;;;;5013688;28;20133;-46
2024/03/12 08:52:04;;;;;;;16.38;8.38;;;9.10;99.90;;;;;;5013751;28;20022;-48
2024/03/12 08:54:33;;;;;;;12.25;8.27;;;9.10;99.90;;;;;;5013893;28;20472;-48
2024/03/12 08:57:00;;;;;;;13.05;8.35;;;9.20;99.90;;;;;;5013746;28;20018;-49
2024/03/12 08:59:26;;;;;;;16.25;9.43;;;9.20;99.90;;;;;;5012744;28;20036;-47
2024/03/12 09:01:57;;;;;;;14.55;9.68;;;9.20;99.90;;;;;;5013263;28;20497;-44
2024/03/12 09:04:27;;;;;;;12.75;9.15;;;9.40;99.90;;;;;;5013346;28;20036;-45
2024/03/12 09:07:36;;;;;;;12.02;9.35;;;9.40;99.90;;;;;;5014055;28;20046;-44
2024/03/12 09:10:05;;;;;;;14.50;9.90;;;9.50;99.90;;;;;;5009814;28;20105;-44
2024/03/12 09:12:31;;;;;;;15.93;10.25;;;9.50;99.90;;;;;;5013511;28;20089;-46
2024/03/12 09:14:57;;;;;;;14.55;10.15;;;9.60;99.90;;;;;;5013028;28;20096;-46
2024/03/12 09:17:23;;;;;;;12.20;9.40;;;9.60;99.90;;;;;;5013381;28;20041;-46
2024/03/12 09:19:48;;;;;;;17.35;11.40;;;9.70;99.90;;;;;;5011571;28;20029;-46
2024/03/12 09:22:14;;;;;;;14.98;10.73;;;9.80;99.90;;;;;;5011244;28;20072;-49
2024/03/12 09:24:39;;;;;;;14.15;10.52;;;9.80;99.90;;;;;;5012942;28;20077;-46
2024/03/12 09:27:05;;;;;;;21.52;11.55;;;9.80;99.90;;;;;;5012918;28;20034;-48
2024/03/12 09:29:30;;;;;;;13.98;10.65;;;9.80;99.90;;;;;;5012832;28;20184;-46
2024/03/12 09:31:56;;;;;;;20.27;11.55;;;9.90;99.90;;;;;;5013111;28;20530;-48
2024/03/12 09:34:24;;;;;;;14.93;10.30;;;9.90;99.90;;;;;;5013247;28;20044;-48
2024/03/12 09:36:49;;;;;;;16.15;10.45;;;9.90;99.90;;;;;;5012756;28;20026;-45
2024/03/12 09:39:17;;;;;;;17.35;10.23;;;9.90;99.90;;;;;;5013030;28;20408;-44
2024/03/12 09:41:47;;;;;;;14.30;11.00;;;9.90;99.90;;;;;;5013916;28;20032;-49
2024/03/12 09:44:15;;;;;;;14.82;10.43;;;10.00;99.90;;;;;;5012801;28;20034;-46
2024/03/12 09:46:41;;;;;;;17.00;11.45;;;10.00;99.90;;;;;;5011787;28;20488;-45
2024/03/12 09:49:12;;;;;;;15.27;10.98;;;9.90;99.90;;;;;;5011987;28;20576;-45
2024/03/12 09:51:38;;;;;;;18.05;11.05;;;10.00;99.90;;;;;;5013291;28;20033;-49
2024/03/12 09:54:04;;;;;;;18.52;11.40;;;9.90;99.90;;;;;;5012826;28;20061;-50
2024/03/12 09:56:33;;;;;;;15.48;10.20;;;10.00;99.90;;;;;;5012996;28;20458;-48
2024/03/12 09:58:59;;;;;;;13.52;10.02;;;10.10;99.90;;;;;;5012708;28;20034;-47
2024/03/12 10:01:24;;;;;;;18.20;10.85;;;10.20;99.90;;;;;;5012514;28;20053;-47
2024/03/12 10:03:53;;;;;;;18.25;11.77;;;10.20;99.90;;;;;;5013020;28;20041;-45
2024/03/12 10:06:18;;;;;;;16.20;11.38;;;10.20;99.90;;;;;;5013666;28;20120;-46
2024/03/12 10:08:44;;;;;;;18.52;11.60;;;10.30;99.90;;;;;;5011998;28;20168;-47
2024/03/12 10:11:18;;;;;;;17.35;11.18;;;10.40;99.90;;;;;;5012468;28;20509;-44
2024/03/12 10:13:53;;;;;;;18.40;10.48;;;10.50;99.90;;;;;;5002677;28;20033;-45
2024/03/12 10:16:19;;;;;;;19.13;12.35;;;10.60;99.90;;;;;;5012583;28;20481;-42
2024/03/12 10:18:45;;;;;;;16.98;12.05;;;10.70;99.90;;;;;;5012042;28;20041;-48
2024/03/12 10:21:10;;;;;;;19.38;11.98;;;10.80;99.90;;;;;;5011976;28;20036;-44
2024/03/12 10:23:37;;;;;;;19.98;12.43;;;10.80;99.90;;;;;;5003022;28;20038;-44
2024/03/12 10:26:12;;;;;;;17.67;11.80;;;10.80;99.90;;;;;;5011645;28;20061;-44
2024/03/12 10:28:41;;;;;;;;;;;11.00;99.90;;;;;;5027212;28;20037;-45
2024/03/12 10:31:09;;;;;;;17.52;11.43;;;11.10;99.90;;;;;;4996691;28;19916;-46
2024/03/12 10:33:36;;;;;;;18.13;11.00;;;11.10;99.90;;;;;;5011713;28;20018;-45
2024/03/12 10:36:03;;;;;;;17.83;12.45;;;11.20;99.90;;;;;;5011030;28;20405;-44
2024/03/12 10:38:31;;;;;;;17.33;11.60;;;11.20;99.90;;;;;;5011661;28;20036;-43
2024/03/12 10:40:57;;;;;;;19.00;11.35;;;11.20;99.90;;;;;;5011882;28;20026;-45
2024/03/12 10:43:24;;;;;;;19.63;11.52;;;11.30;99.90;;;;;;5011742;28;20034;-44
2024/03/12 10:45:50;;;;;;;17.58;11.23;;;11.20;99.90;;;;;;5009968;28;20041;-50
2024/03/12 10:48:18;;;;;;;20.15;12.23;;;11.20;99.90;;;;;;4995360;28;20030;-50
2024/03/12 10:50:44;;;;;;;23.38;14.27;;;11.10;99.90;;;;;;4999587;28;20448;-52
2024/03/12 10:53:11;;;;;;;41.05;23.13;;;11.10;99.90;;;;;;5011790;28;20110;-49
2024/03/12 10:55:38;;;;;;;16.35;10.63;;;11.00;99.90;;;;;;5011059;28;20033;-47
2024/03/12 10:58:06;;;;;;;20.10;11.25;;;11.00;99.90;;;;;;5011488;28;20097;-53
2024/03/12 11:00:32;;;;;;;16.17;10.48;;;10.90;99.90;;;;;;5011212;28;20026;-55
2024/03/12 11:02:59;;;;;;;13.32;9.18;;;10.90;99.90;;;;;;5009897;28;20409;-48
2024/03/12 11:05:29;;;;;;;12.82;9.07;;;10.90;99.90;;;;;;5010462;28;20022;-53
2024/03/12 11:07:57;;;;;;;14.15;8.73;;;10.90;99.90;;;;;;5012012;28;20037;-50
2024/03/12 11:10:26;;;;;;;14.68;7.55;;;11.00;99.90;;;;;;5014541;28;20030;-56
2024/03/12 11:12:54;;;;;;;12.27;8.00;;;11.00;99.90;;;;;;5031192;28;20493;-50
2024/03/12 11:15:20;;;;;;;16.98;8.40;;;11.00;99.90;;;;;;5029947;28;20030;-54
2024/03/12 11:17:48;;;;;;;13.55;7.72;;;11.20;99.90;;;;;;5008544;28;20030;-53
2024/03/12 11:20:17;;;;;;;14.27;9.32;;;11.20;99.90;;;;;;4999837;28;20192;-51
2024/03/12 11:22:44;;;;;;;14.50;8.27;;;11.30;99.90;;;;;;4993446;28;20026;-53
2024/03/12 11:25:11;;;;;;;16.40;9.32;;;11.40;99.90;;;;;;5010904;28;20026;-54
2024/03/12 11:27:37;;;;;;;15.27;10.57;;;11.40;99.90;;;;;;5011454;28;20025;-54
2024/03/12 11:30:18;;;;;;;16.35;10.88;;;11.40;99.90;;;;;;5009986;28;20033;-50
2024/03/12 11:32:46;;;;;;;17.40;10.13;;;11.30;99.90;;;;;;5011225;28;20056;-53
2024/03/12 11:35:17;;;;;;;16.30;10.27;;;11.40;99.90;;;;;;5011398;28;20026;-52
2024/03/12 11:37:58;;;;;;;15.07;9.75;;;11.40;99.90;;;;;;4995575;28;20041;-53
2024/03/12 11:40:34;;;;;;;16.75;10.68;;;11.30;99.90;;;;;;5008313;28;20018;-53
2024/03/12 11:43:00;;;;;;;16.30;9.45;;;11.30;99.90;;;;;;5010205;28;20058;-47
2024/03/12 11:45:46;;;;;;;14.13;9.65;;;11.20;99.90;;;;;;5011345;28;20125;-47
2024/03/12 11:48:18;;;;;;;14.70;8.75;;;11.20;99.90;;;;;;5007071;28;20033;-49
2024/03/12 11:50:55;;;;;;;15.02;9.77;;;11.20;99.90;;;;;;5011185;28;20030;-53
2024/03/12 11:53:22;;;;;;;12.63;8.38;;;11.20;99.90;;;;;;5011041;28;20018;-47
2024/03/12 11:56:06;;;;;;;12.82;9.23;;;11.30;99.90;;;;;;5010922;28;20029;-52
2024/03/12 11:58:38;;;;;;;10.23;7.90;;;11.40;99.90;;;;;;5011203;28;20034;-53
2024/03/12 12:01:06;;;;;;;12.38;8.75;;;11.50;99.90;;;;;;5010875;28;20026;-50
2024/03/12 12:03:34;;;;;;;10.82;8.13;;;11.60;99.90;;;;;;5010849;28;20136;-52
2024/03/12 12:06:00;;;;;;;13.65;8.55;;;11.60;99.90;;;;;;5013596;28;20441;-53
2024/03/12 12:08:27;;;;;;;14.23;8.98;;;11.60;99.90;;;;;;5010742;28;20062;-54
2024/03/12 12:10:57;;;;;;;12.55;7.90;;;11.60;99.90;;;;;;5025365;22;20030;-47
2024/03/12 12:13:23;;;;;;;18.95;13.00;;;11.60;99.90;;;;;;4995810;28;20042;-52
2024/03/12 12:16:01;;;;;;;13.85;9.93;;;11.60;99.90;;;;;;5014313;28;20052;-50
2024/03/12 12:18:29;;;;;;;13.93;10.02;;;11.70;99.90;;;;;;5014916;28;20152;-57
2024/03/12 12:21:00;;;;;;;14.73;8.98;;;11.70;99.90;;;;;;5014127;28;20036;-53
2024/03/12 12:23:26;;;;;;;15.13;9.25;;;11.80;99.90;;;;;;5014591;28;20026;-53
2024/03/12 12:25:56;;;;;;;14.70;9.82;;;11.80;99.90;;;;;;5014370;28;20449;-52
2024/03/12 12:28:24;;;;;;;13.65;9.90;;;11.80;99.90;;;;;;5013510;28;20030;-55
2024/03/12 12:30:55;;;;;;;15.75;9.63;;;12.00;99.90;;;;;;5010549;28;20442;-54
2024/03/12 12:33:24;;;;;;;13.15;8.63;;;11.90;99.90;;;;;;5013360;28;20022;-58
2024/03/12 12:35:52;;;;;;;15.13;9.88;;;11.90;99.90;;;;;;5013239;28;20317;-57
2024/03/12 12:38:18;;;;;;;14.50;9.73;;;11.90;99.90;;;;;;5013017;28;20112;-55
2024/03/12 12:40:45;;;;;;;13.70;10.82;;;11.80;99.90;;;;;;5008231;28;20101;-54
2024/03/12 12:43:17;;;;;;;14.73;9.65;;;11.70;99.90;;;;;;4994478;28;20566;-51
2024/03/12 12:45:46;;;;;;;18.23;11.30;;;11.70;99.90;;;;;;5001778;28;20034;-59
2024/03/12 12:48:12;;;;;;;15.40;10.68;;;11.60;99.90;;;;;;5013948;28;20083;-56
2024/03/12 12:50:37;;;;;;;16.63;11.50;;;11.60;99.90;;;;;;5012268;28;20398;-55
2024/03/12 12:53:04;;;;;;;18.45;11.80;;;11.60;99.90;;;;;;5013923;28;20033;-51
2024/03/12 12:55:30;;;;;;;18.17;11.88;;;11.60;99.90;;;;;;5012743;28;20397;-54